sensor_id;sensor_type;location;lat;lon;timestamp;P1;durP1;ratioP1;P2;durP2;ratioP2
4122;SDS011;2075;51.062;6.920;2022-11-20T00:01:54;22.63;;;11.80;;
4122;SDS011;2075;51.062;6.920;2022-11-20T00:04:39;24.07;;;12.13;;
4122;SDS011;2075;51.062;6.920;2022-11-20T00:07:25;25.27;;;12.00;;
4122;SDS011;2075;51.062;6.920;2022-11-20T00:10:10;20.73;;;11.27;;
4122;SDS011;2075;51.062;6.920;2022-11-20T00:12:56;23.30;;;12.43;;
4122;SDS011;2075;51.062;6.920;2022-11-20T00:15:42;22.50;;;12.33;;
4122;SDS011;2075;51.062;6.920;2022-11-20T00:18:29;27.07;;;11.90;;
4122;SDS011;2075;51.062;6.920;2022-11-20T00:21:17;27.03;;;13.00;;
4122;SDS011;2075;51.062;6.920;2022-11-20T00:24:04;24.90;;;12.10;;
4122;SDS011;2075;51.062;6.920;2022-11-20T00:26:50;23.50;;;12.83;;
4122;SDS011;2075;51.062;6.920;2022-11-20T00:29:35;22.83;;;12.33;;
4122;SDS011;2075;51.062;6.920;2022-11-20T00:32:21;21.50;;;11.07;;
4122;SDS011;2075;51.062;6.920;2022-11-20T00:35:08;23.33;;;12.23;;
4122;SDS011;2075;51.062;6.920;2022-11-20T00:37:53;21.90;;;11.60;;
4122;SDS011;2075;51.062;6.920;2022-11-20T00:40:39;24.80;;;12.43;;
4122;SDS011;2075;51.062;6.920;2022-11-20T00:43:24;23.13;;;11.77;;
4122;SDS011;2075;51.062;6.920;2022-11-20T00:46:10;26.23;;;11.63;;
4122;SDS011;2075;51.062;6.920;2022-11-20T00:48:58;21.03;;;10.60;;
4122;SDS011;2075;51.062;6.920;2022-11-20T00:51:46;21.53;;;12.33;;
4122;SDS011;2075;51.062;6.920;2022-11-20T00:54:31;19.87;;;11.70;;
4122;SDS011;2075;51.062;6.920;2022-11-20T00:57:17;21.80;;;11.17;;
4122;SDS011;2075;51.062;6.920;2022-11-20T01:00:02;22.03;;;11.30;;
4122;SDS011;2075;51.062;6.920;2022-11-20T01:02:48;21.30;;;11.90;;
4122;SDS011;2075;51.062;6.920;2022-11-20T01:05:34;23.00;;;11.37;;
4122;SDS011;2075;51.062;6.920;2022-11-20T01:08:21;21.33;;;11.80;;
4122;SDS011;2075;51.062;6.920;2022-11-20T01:11:07;22.73;;;12.03;;
4122;SDS011;2075;51.062;6.920;2022-11-20T01:13:55;25.20;;;12.77;;
4122;SDS011;2075;51.062;6.920;2022-11-20T01:16:42;21.43;;;11.80;;
4122;SDS011;2075;51.062;6.920;2022-11-20T01:19:29;20.40;;;11.23;;
4122;SDS011;2075;51.062;6.920;2022-11-20T01:22:15;22.60;;;11.40;;
4122;SDS011;2075;51.062;6.920;2022-11-20T01:25:02;29.90;;;12.07;;
4122;SDS011;2075;51.062;6.920;2022-11-20T01:27:48;20.70;;;11.40;;
4122;SDS011;2075;51.062;6.920;2022-11-20T01:30:33;22.93;;;11.70;;
4122;SDS011;2075;51.062;6.920;2022-11-20T01:33:19;23.50;;;11.70;;
4122;SDS011;2075;51.062;6.920;2022-11-20T01:36:04;21.57;;;11.10;;
4122;SDS011;2075;51.062;6.920;2022-11-20T01:38:51;21.10;;;11.30;;
4122;SDS011;2075;51.062;6.920;2022-11-20T01:41:38;21.17;;;11.27;;
4122;SDS011;2075;51.062;6.920;2022-11-20T01:44:50;25.20;;;12.80;;
4122;SDS011;2075;51.062;6.920;2022-11-20T01:47:38;19.80;;;10.57;;
4122;SDS011;2075;51.062;6.920;2022-11-20T01:50:27;22.70;;;11.90;;
4122;SDS011;2075;51.062;6.920;2022-11-20T01:53:14;24.33;;;12.47;;
4122;SDS011;2075;51.062;6.920;2022-11-20T01:56:05;19.60;;;10.30;;
4122;SDS011;2075;51.062;6.920;2022-11-20T01:58:56;21.20;;;11.90;;
4122;SDS011;2075;51.062;6.920;2022-11-20T02:01:48;20.67;;;10.43;;
4122;SDS011;2075;51.062;6.920;2022-11-20T02:04:34;23.10;;;11.63;;
4122;SDS011;2075;51.062;6.920;2022-11-20T02:07:19;22.60;;;13.00;;
4122;SDS011;2075;51.062;6.920;2022-11-20T02:10:07;21.83;;;10.60;;
4122;SDS011;2075;51.062;6.920;2022-11-20T02:12:53;23.77;;;11.70;;
4122;SDS011;2075;51.062;6.920;2022-11-20T02:15:57;22.40;;;11.87;;
4122;SDS011;2075;51.062;6.920;2022-11-20T02:18:43;20.53;;;11.60;;
4122;SDS011;2075;51.062;6.920;2022-11-20T02:21:32;24.33;;;11.93;;
4122;SDS011;2075;51.062;6.920;2022-11-20T02:24:23;20.53;;;11.60;;
4122;SDS011;2075;51.062;6.920;2022-11-20T02:27:09;23.50;;;11.97;;
4122;SDS011;2075;51.062;6.920;2022-11-20T02:29:57;21.13;;;11.13;;
4122;SDS011;2075;51.062;6.920;2022-11-20T02:32:45;19.37;;;11.50;;
4122;SDS011;2075;51.062;6.920;2022-11-20T02:35:41;26.03;;;12.03;;
4122;SDS011;2075;51.062;6.920;2022-11-20T02:38:28;21.90;;;11.40;;
4122;SDS011;2075;51.062;6.920;2022-11-20T02:41:15;20.37;;;11.63;;
4122;SDS011;2075;51.062;6.920;2022-11-20T02:44:01;21.87;;;11.67;;
4122;SDS011;2075;51.062;6.920;2022-11-20T02:46:47;23.40;;;11.93;;
4122;SDS011;2075;51.062;6.920;2022-11-20T02:49:32;22.33;;;11.43;;
4122;SDS011;2075;51.062;6.920;2022-11-20T02:52:17;22.37;;;11.07;;
4122;SDS011;2075;51.062;6.920;2022-11-20T02:55:03;22.47;;;11.50;;
4122;SDS011;2075;51.062;6.920;2022-11-20T02:57:50;21.30;;;10.90;;
4122;SDS011;2075;51.062;6.920;2022-11-20T03:00:36;22.53;;;11.43;;
4122;SDS011;2075;51.062;6.920;2022-11-20T03:03:22;23.77;;;12.07;;
4122;SDS011;2075;51.062;6.920;2022-11-20T03:06:07;25.20;;;12.73;;
4122;SDS011;2075;51.062;6.920;2022-11-20T03:08:52;22.30;;;11.43;;
4122;SDS011;2075;51.062;6.920;2022-11-20T03:11:38;20.90;;;11.43;;
4122;SDS011;2075;51.062;6.920;2022-11-20T03:14:25;22.30;;;12.30;;
4122;SDS011;2075;51.062;6.920;2022-11-20T03:17:10;20.33;;;11.10;;
4122;SDS011;2075;51.062;6.920;2022-11-20T03:19:56;23.60;;;11.60;;
4122;SDS011;2075;51.062;6.920;2022-11-20T03:22:41;20.00;;;11.40;;
4122;SDS011;2075;51.062;6.920;2022-11-20T03:25:26;21.93;;;11.67;;
4122;SDS011;2075;51.062;6.920;2022-11-20T03:28:12;22.90;;;11.57;;
4122;SDS011;2075;51.062;6.920;2022-11-20T03:30:59;22.70;;;11.97;;
4122;SDS011;2075;51.062;6.920;2022-11-20T03:33:50;19.90;;;10.93;;
4122;SDS011;2075;51.062;6.920;2022-11-20T03:36:37;19.93;;;11.30;;
4122;SDS011;2075;51.062;6.920;2022-11-20T03:39:23;19.47;;;11.07;;
4122;SDS011;2075;51.062;6.920;2022-11-20T03:42:08;21.50;;;11.90;;
4122;SDS011;2075;51.062;6.920;2022-11-20T03:45:15;21.70;;;10.80;;
4122;SDS011;2075;51.062;6.920;2022-11-20T03:48:03;18.00;;;10.60;;
4122;SDS011;2075;51.062;6.920;2022-11-20T03:50:49;20.27;;;11.40;;
4122;SDS011;2075;51.062;6.920;2022-11-20T03:53:34;19.43;;;11.13;;
4122;SDS011;2075;51.062;6.920;2022-11-20T03:56:20;30.93;;;10.63;;
4122;SDS011;2075;51.062;6.920;2022-11-20T03:59:09;20.50;;;10.80;;
4122;SDS011;2075;51.062;6.920;2022-11-20T04:01:55;21.07;;;11.40;;
4122;SDS011;2075;51.062;6.920;2022-11-20T04:04:42;21.93;;;11.60;;
4122;SDS011;2075;51.062;6.920;2022-11-20T04:07:27;17.87;;;10.77;;
4122;SDS011;2075;51.062;6.920;2022-11-20T04:10:13;20.10;;;12.27;;
4122;SDS011;2075;51.062;6.920;2022-11-20T04:12:58;24.17;;;11.70;;
4122;SDS011;2075;51.062;6.920;2022-11-20T04:15:43;19.60;;;10.60;;
4122;SDS011;2075;51.062;6.920;2022-11-20T04:18:29;20.53;;;11.43;;
4122;SDS011;2075;51.062;6.920;2022-11-20T04:21:16;20.40;;;11.97;;
4122;SDS011;2075;51.062;6.920;2022-11-20T04:24:01;26.10;;;13.23;;
4122;SDS011;2075;51.062;6.920;2022-11-20T04:26:46;22.93;;;11.30;;
4122;SDS011;2075;51.062;6.920;2022-11-20T04:29:32;22.50;;;11.77;;
4122;SDS011;2075;51.062;6.920;2022-11-20T04:32:17;25.10;;;12.70;;
4122;SDS011;2075;51.062;6.920;2022-11-20T04:35:03;19.77;;;10.70;;
4122;SDS011;2075;51.062;6.920;2022-11-20T04:37:52;20.93;;;11.53;;
4122;SDS011;2075;51.062;6.920;2022-11-20T04:40:37;20.63;;;11.07;;
4122;SDS011;2075;51.062;6.920;2022-11-20T04:43:22;24.87;;;12.70;;
4122;SDS011;2075;51.062;6.920;2022-11-20T04:46:08;22.60;;;11.80;;
4122;SDS011;2075;51.062;6.920;2022-11-20T04:48:53;17.73;;;10.90;;
4122;SDS011;2075;51.062;6.920;2022-11-20T04:51:39;20.07;;;11.30;;
4122;SDS011;2075;51.062;6.920;2022-11-20T04:54:25;22.60;;;12.20;;
4122;SDS011;2075;51.062;6.920;2022-11-20T04:57:12;21.73;;;11.80;;
4122;SDS011;2075;51.062;6.920;2022-11-20T04:59:58;23.23;;;12.00;;
4122;SDS011;2075;51.062;6.920;2022-11-20T05:02:43;20.80;;;11.60;;
4122;SDS011;2075;51.062;6.920;2022-11-20T05:05:29;21.23;;;11.67;;
4122;SDS011;2075;51.062;6.920;2022-11-20T05:08:14;23.80;;;11.93;;
4122;SDS011;2075;51.062;6.920;2022-11-20T05:11:02;20.27;;;10.83;;
4122;SDS011;2075;51.062;6.920;2022-11-20T05:13:48;22.63;;;12.00;;
4122;SDS011;2075;51.062;6.920;2022-11-20T05:16:34;20.10;;;11.57;;
4122;SDS011;2075;51.062;6.920;2022-11-20T05:19:19;20.60;;;11.50;;
4122;SDS011;2075;51.062;6.920;2022-11-20T05:22:05;21.20;;;11.53;;
4122;SDS011;2075;51.062;6.920;2022-11-20T05:24:50;17.43;;;10.43;;
4122;SDS011;2075;51.062;6.920;2022-11-20T05:27:37;21.00;;;10.97;;
4122;SDS011;2075;51.062;6.920;2022-11-20T05:30:23;23.97;;;11.60;;
4122;SDS011;2075;51.062;6.920;2022-11-20T05:33:08;18.63;;;10.73;;
4122;SDS011;2075;51.062;6.920;2022-11-20T05:35:54;24.83;;;12.03;;
4122;SDS011;2075;51.062;6.920;2022-11-20T05:38:43;21.07;;;12.17;;
4122;SDS011;2075;51.062;6.920;2022-11-20T05:41:28;18.00;;;10.57;;
4122;SDS011;2075;51.062;6.920;2022-11-20T05:44:15;25.27;;;11.93;;
4122;SDS011;2075;51.062;6.920;2022-11-20T05:47:00;19.97;;;11.87;;
4122;SDS011;2075;51.062;6.920;2022-11-20T05:49:46;26.47;;;13.60;;
4122;SDS011;2075;51.062;6.920;2022-11-20T05:52:31;22.33;;;11.40;;
4122;SDS011;2075;51.062;6.920;2022-11-20T05:55:16;24.20;;;11.80;;
4122;SDS011;2075;51.062;6.920;2022-11-20T05:58:02;23.20;;;12.27;;
4122;SDS011;2075;51.062;6.920;2022-11-20T06:00:49;25.67;;;13.03;;
4122;SDS011;2075;51.062;6.920;2022-11-20T06:03:34;22.87;;;12.60;;
4122;SDS011;2075;51.062;6.920;2022-11-20T06:06:20;20.57;;;12.37;;
4122;SDS011;2075;51.062;6.920;2022-11-20T06:09:05;25.07;;;13.27;;
4122;SDS011;2075;51.062;6.920;2022-11-20T06:11:51;22.10;;;13.00;;
4122;SDS011;2075;51.062;6.920;2022-11-20T06:14:36;26.13;;;12.80;;
4122;SDS011;2075;51.062;6.920;2022-11-20T06:17:23;25.60;;;13.50;;
4122;SDS011;2075;51.062;6.920;2022-11-20T06:20:09;23.60;;;12.57;;
4122;SDS011;2075;51.062;6.920;2022-11-20T06:22:54;22.83;;;12.00;;
4122;SDS011;2075;51.062;6.920;2022-11-20T06:25:40;22.00;;;12.37;;
4122;SDS011;2075;51.062;6.920;2022-11-20T06:28:26;23.83;;;12.37;;
4122;SDS011;2075;51.062;6.920;2022-11-20T06:31:12;21.30;;;11.40;;
4122;SDS011;2075;51.062;6.920;2022-11-20T06:34:00;26.53;;;12.77;;
4122;SDS011;2075;51.062;6.920;2022-11-20T06:36:45;24.37;;;12.47;;
4122;SDS011;2075;51.062;6.920;2022-11-20T06:39:31;23.33;;;12.00;;
4122;SDS011;2075;51.062;6.920;2022-11-20T06:42:16;23.33;;;12.40;;
4122;SDS011;2075;51.062;6.920;2022-11-20T06:45:01;30.10;;;12.40;;
4122;SDS011;2075;51.062;6.920;2022-11-20T06:47:47;24.20;;;11.63;;
4122;SDS011;2075;51.062;6.920;2022-11-20T06:50:34;23.57;;;12.20;;
4122;SDS011;2075;51.062;6.920;2022-11-20T06:53:21;23.60;;;12.77;;
4122;SDS011;2075;51.062;6.920;2022-11-20T06:56:06;23.23;;;12.90;;
4122;SDS011;2075;51.062;6.920;2022-11-20T06:58:52;24.17;;;12.20;;
4122;SDS011;2075;51.062;6.920;2022-11-20T07:01:37;23.90;;;12.20;;
4122;SDS011;2075;51.062;6.920;2022-11-20T07:04:22;21.80;;;11.90;;
4122;SDS011;2075;51.062;6.920;2022-11-20T07:07:09;23.03;;;12.50;;
4122;SDS011;2075;51.062;6.920;2022-11-20T07:09:55;23.13;;;11.87;;
4122;SDS011;2075;51.062;6.920;2022-11-20T07:12:40;30.07;;;14.30;;
4122;SDS011;2075;51.062;6.920;2022-11-20T07:15:26;26.93;;;13.23;;
4122;SDS011;2075;51.062;6.920;2022-11-20T07:18:11;31.43;;;13.40;;
4122;SDS011;2075;51.062;6.920;2022-11-20T07:20:59;23.47;;;12.90;;
4122;SDS011;2075;51.062;6.920;2022-11-20T07:23:47;26.23;;;13.10;;
4122;SDS011;2075;51.062;6.920;2022-11-20T07:26:32;28.30;;;13.20;;
4122;SDS011;2075;51.062;6.920;2022-11-20T07:29:18;23.63;;;12.70;;
4122;SDS011;2075;51.062;6.920;2022-11-20T07:32:03;25.23;;;12.73;;
4122;SDS011;2075;51.062;6.920;2022-11-20T07:34:49;27.00;;;13.40;;
4122;SDS011;2075;51.062;6.920;2022-11-20T07:37:34;32.80;;;13.80;;
4122;SDS011;2075;51.062;6.920;2022-11-20T07:40:21;20.87;;;11.90;;
4122;SDS011;2075;51.062;6.920;2022-11-20T07:43:07;21.03;;;11.63;;
4122;SDS011;2075;51.062;6.920;2022-11-20T07:45:54;26.37;;;13.77;;
4122;SDS011;2075;51.062;6.920;2022-11-20T07:48:40;22.80;;;13.40;;
4122;SDS011;2075;51.062;6.920;2022-11-20T07:51:25;26.87;;;14.83;;
4122;SDS011;2075;51.062;6.920;2022-11-20T07:54:11;28.50;;;13.50;;
4122;SDS011;2075;51.062;6.920;2022-11-20T07:56:58;26.87;;;13.47;;
4122;SDS011;2075;51.062;6.920;2022-11-20T07:59:43;26.10;;;13.60;;
4122;SDS011;2075;51.062;6.920;2022-11-20T08:02:29;25.77;;;13.87;;
4122;SDS011;2075;51.062;6.920;2022-11-20T08:05:15;23.17;;;12.50;;
4122;SDS011;2075;51.062;6.920;2022-11-20T08:08:00;22.57;;;12.33;;
4122;SDS011;2075;51.062;6.920;2022-11-20T08:10:46;24.40;;;13.50;;
4122;SDS011;2075;51.062;6.920;2022-11-20T08:13:32;25.80;;;13.63;;
4122;SDS011;2075;51.062;6.920;2022-11-20T08:16:35;22.30;;;12.53;;
4122;SDS011;2075;51.062;6.920;2022-11-20T08:19:21;22.70;;;12.60;;
4122;SDS011;2075;51.062;6.920;2022-11-20T08:22:07;28.27;;;13.90;;
4122;SDS011;2075;51.062;6.920;2022-11-20T08:24:52;24.53;;;13.90;;
4122;SDS011;2075;51.062;6.920;2022-11-20T08:27:38;30.10;;;13.47;;
4122;SDS011;2075;51.062;6.920;2022-11-20T08:30:24;21.67;;;12.00;;
4122;SDS011;2075;51.062;6.920;2022-11-20T08:33:10;24.70;;;13.87;;
4122;SDS011;2075;51.062;6.920;2022-11-20T08:35:58;23.43;;;12.40;;
4122;SDS011;2075;51.062;6.920;2022-11-20T08:38:46;28.13;;;14.47;;
4122;SDS011;2075;51.062;6.920;2022-11-20T08:41:32;29.80;;;14.87;;
4122;SDS011;2075;51.062;6.920;2022-11-20T08:44:18;28.93;;;13.67;;
4122;SDS011;2075;51.062;6.920;2022-11-20T08:47:05;30.23;;;14.50;;
4122;SDS011;2075;51.062;6.920;2022-11-20T08:49:50;24.87;;;14.53;;
4122;SDS011;2075;51.062;6.920;2022-11-20T08:52:36;28.67;;;15.37;;
4122;SDS011;2075;51.062;6.920;2022-11-20T08:55:21;29.40;;;14.67;;
4122;SDS011;2075;51.062;6.920;2022-11-20T08:58:08;23.77;;;13.17;;
4122;SDS011;2075;51.062;6.920;2022-11-20T09:00:54;27.53;;;15.67;;
4122;SDS011;2075;51.062;6.920;2022-11-20T09:03:41;26.57;;;13.87;;
4122;SDS011;2075;51.062;6.920;2022-11-20T09:06:26;32.37;;;15.83;;
4122;SDS011;2075;51.062;6.920;2022-11-20T09:09:12;24.57;;;13.57;;
4122;SDS011;2075;51.062;6.920;2022-11-20T09:11:57;27.67;;;13.90;;
4122;SDS011;2075;51.062;6.920;2022-11-20T09:14:43;32.00;;;16.10;;
4122;SDS011;2075;51.062;6.920;2022-11-20T09:17:29;26.97;;;15.70;;
4122;SDS011;2075;51.062;6.920;2022-11-20T09:20:16;27.87;;;14.30;;
4122;SDS011;2075;51.062;6.920;2022-11-20T09:23:01;28.33;;;14.50;;
4122;SDS011;2075;51.062;6.920;2022-11-20T09:25:47;29.13;;;14.47;;
4122;SDS011;2075;51.062;6.920;2022-11-20T09:28:32;26.53;;;13.23;;
4122;SDS011;2075;51.062;6.920;2022-11-20T09:31:19;24.80;;;13.60;;
4122;SDS011;2075;51.062;6.920;2022-11-20T09:34:07;24.60;;;13.10;;
4122;SDS011;2075;51.062;6.920;2022-11-20T09:36:54;27.33;;;13.67;;
4122;SDS011;2075;51.062;6.920;2022-11-20T09:39:40;25.60;;;12.90;;
4122;SDS011;2075;51.062;6.920;2022-11-20T09:42:30;27.00;;;13.60;;
4122;SDS011;2075;51.062;6.920;2022-11-20T09:45:24;25.30;;;12.50;;
4122;SDS011;2075;51.062;6.920;2022-11-20T09:48:29;22.67;;;12.43;;
4122;SDS011;2075;51.062;6.920;2022-11-20T09:51:35;23.90;;;12.53;;
4122;SDS011;2075;51.062;6.920;2022-11-20T09:54:27;23.53;;;13.27;;
4122;SDS011;2075;51.062;6.920;2022-11-20T09:57:17;28.87;;;13.53;;
4122;SDS011;2075;51.062;6.920;2022-11-20T10:00:09;23.87;;;12.50;;
4122;SDS011;2075;51.062;6.920;2022-11-20T10:02:58;27.87;;;13.73;;
4122;SDS011;2075;51.062;6.920;2022-11-20T10:05:51;29.30;;;14.63;;
4122;SDS011;2075;51.062;6.920;2022-11-20T10:08:40;24.90;;;13.60;;
4122;SDS011;2075;51.062;6.920;2022-11-20T10:11:32;30.07;;;17.10;;
4122;SDS011;2075;51.062;6.920;2022-11-20T10:14:31;29.23;;;15.20;;
4122;SDS011;2075;51.062;6.920;2022-11-20T10:17:31;28.00;;;14.10;;
4122;SDS011;2075;51.062;6.920;2022-11-20T10:20:35;27.07;;;15.00;;
4122;SDS011;2075;51.062;6.920;2022-11-20T10:26:47;26.03;;;13.83;;
4122;SDS011;2075;51.062;6.920;2022-11-20T10:29:38;35.80;;;17.07;;
4122;SDS011;2075;51.062;6.920;2022-11-20T10:32:30;26.63;;;14.13;;
4122;SDS011;2075;51.062;6.920;2022-11-20T10:35:21;26.30;;;14.37;;
4122;SDS011;2075;51.062;6.920;2022-11-20T10:38:13;25.88;;;15.98;;
4122;SDS011;2075;51.062;6.920;2022-11-20T10:41:03;26.37;;;14.47;;
4122;SDS011;2075;51.062;6.920;2022-11-20T10:44:11;25.13;;;14.53;;
4122;SDS011;2075;51.062;6.920;2022-11-20T10:47:20;27.07;;;15.07;;
4122;SDS011;2075;51.062;6.920;2022-11-20T10:50:08;25.10;;;13.53;;
4122;SDS011;2075;51.062;6.920;2022-11-20T10:52:59;30.23;;;15.37;;
4122;SDS011;2075;51.062;6.920;2022-11-20T10:55:50;28.83;;;15.00;;
4122;SDS011;2075;51.062;6.920;2022-11-20T10:58:43;28.77;;;15.17;;
4122;SDS011;2075;51.062;6.920;2022-11-20T11:01:40;25.10;;;12.83;;
4122;SDS011;2075;51.062;6.920;2022-11-20T11:04:33;29.07;;;15.30;;
4122;SDS011;2075;51.062;6.920;2022-11-20T11:07:24;35.60;;;16.20;;
4122;SDS011;2075;51.062;6.920;2022-11-20T11:10:15;30.10;;;17.20;;
4122;SDS011;2075;51.062;6.920;2022-11-20T11:13:02;30.10;;;15.90;;
4122;SDS011;2075;51.062;6.920;2022-11-20T11:15:48;29.70;;;15.67;;
4122;SDS011;2075;51.062;6.920;2022-11-20T11:18:35;28.73;;;15.43;;
4122;SDS011;2075;51.062;6.920;2022-11-20T11:21:21;35.17;;;19.43;;
4122;SDS011;2075;51.062;6.920;2022-11-20T11:24:15;30.27;;;14.87;;
4122;SDS011;2075;51.062;6.920;2022-11-20T11:27:11;30.27;;;15.80;;
4122;SDS011;2075;51.062;6.920;2022-11-20T11:30:02;34.80;;;18.37;;
4122;SDS011;2075;51.062;6.920;2022-11-20T11:33:04;28.90;;;15.20;;
4122;SDS011;2075;51.062;6.920;2022-11-20T11:35:53;28.10;;;14.30;;
4122;SDS011;2075;51.062;6.920;2022-11-20T11:38:41;28.50;;;15.40;;
4122;SDS011;2075;51.062;6.920;2022-11-20T11:41:29;31.70;;;16.23;;
4122;SDS011;2075;51.062;6.920;2022-11-20T11:44:20;36.43;;;16.10;;
4122;SDS011;2075;51.062;6.920;2022-11-20T11:47:24;36.63;;;16.20;;
4122;SDS011;2075;51.062;6.920;2022-11-20T11:50:15;35.17;;;17.17;;
4122;SDS011;2075;51.062;6.920;2022-11-20T11:53:07;29.80;;;15.73;;
4122;SDS011;2075;51.062;6.920;2022-11-20T11:55:58;35.77;;;16.97;;
4122;SDS011;2075;51.062;6.920;2022-11-20T11:58:51;29.50;;;15.57;;
4122;SDS011;2075;51.062;6.920;2022-11-20T12:01:41;30.33;;;15.93;;
4122;SDS011;2075;51.062;6.920;2022-11-20T12:04:37;44.00;;;17.50;;
4122;SDS011;2075;51.062;6.920;2022-11-20T12:07:32;33.83;;;17.07;;
4122;SDS011;2075;51.062;6.920;2022-11-20T12:10:30;28.43;;;15.43;;
4122;SDS011;2075;51.062;6.920;2022-11-20T12:16:33;30.57;;;16.03;;
4122;SDS011;2075;51.062;6.920;2022-11-20T12:19:21;34.93;;;17.57;;
4122;SDS011;2075;51.062;6.920;2022-11-20T12:22:10;33.50;;;15.63;;
4122;SDS011;2075;51.062;6.920;2022-11-20T12:25:08;30.10;;;15.60;;
4122;SDS011;2075;51.062;6.920;2022-11-20T12:28:10;30.10;;;15.30;;
4122;SDS011;2075;51.062;6.920;2022-11-20T12:31:13;30.53;;;14.37;;
4122;SDS011;2075;51.062;6.920;2022-11-20T12:34:30;29.03;;;16.90;;
4122;SDS011;2075;51.062;6.920;2022-11-20T12:37:30;33.80;;;16.37;;
4122;SDS011;2075;51.062;6.920;2022-11-20T12:40:27;35.77;;;17.90;;
4122;SDS011;2075;51.062;6.920;2022-11-20T12:43:18;33.07;;;16.90;;
4122;SDS011;2075;51.062;6.920;2022-11-20T12:46:26;33.90;;;15.90;;
4122;SDS011;2075;51.062;6.920;2022-11-20T12:49:26;32.47;;;16.93;;
4122;SDS011;2075;51.062;6.920;2022-11-20T12:52:27;33.60;;;16.07;;
4122;SDS011;2075;51.062;6.920;2022-11-20T12:55:28;40.83;;;17.73;;
4122;SDS011;2075;51.062;6.920;2022-11-20T12:58:30;34.93;;;16.97;;
4122;SDS011;2075;51.062;6.920;2022-11-20T13:01:24;30.13;;;15.73;;
4122;SDS011;2075;51.062;6.920;2022-11-20T13:04:33;33.10;;;16.80;;
4122;SDS011;2075;51.062;6.920;2022-11-20T13:07:32;36.53;;;16.27;;
4122;SDS011;2075;51.062;6.920;2022-11-20T13:10:21;33.87;;;16.83;;
4122;SDS011;2075;51.062;6.920;2022-11-20T13:13:16;35.10;;;17.80;;
4122;SDS011;2075;51.062;6.920;2022-11-20T13:16:08;31.47;;;15.53;;
4122;SDS011;2075;51.062;6.920;2022-11-20T13:19:01;28.50;;;15.40;;
4122;SDS011;2075;51.062;6.920;2022-11-20T13:21:47;29.20;;;15.10;;
4122;SDS011;2075;51.062;6.920;2022-11-20T13:24:34;28.23;;;14.70;;
4122;SDS011;2075;51.062;6.920;2022-11-20T13:27:20;29.53;;;15.00;;
4122;SDS011;2075;51.062;6.920;2022-11-20T13:30:14;30.87;;;14.13;;
4122;SDS011;2075;51.062;6.920;2022-11-20T13:33:04;30.57;;;15.97;;
4122;SDS011;2075;51.062;6.920;2022-11-20T13:35:57;26.20;;;14.17;;
4122;SDS011;2075;51.062;6.920;2022-11-20T13:38:46;33.77;;;16.23;;
4122;SDS011;2075;51.062;6.920;2022-11-20T13:41:33;34.70;;;15.67;;
4122;SDS011;2075;51.062;6.920;2022-11-20T13:44:23;28.97;;;15.27;;
4122;SDS011;2075;51.062;6.920;2022-11-20T13:47:18;35.73;;;16.80;;
4122;SDS011;2075;51.062;6.920;2022-11-20T13:50:13;28.20;;;16.00;;
4122;SDS011;2075;51.062;6.920;2022-11-20T13:53:00;26.93;;;14.90;;
4122;SDS011;2075;51.062;6.920;2022-11-20T13:55:59;28.90;;;14.90;;
4122;SDS011;2075;51.062;6.920;2022-11-20T13:58:49;31.83;;;15.83;;
4122;SDS011;2075;51.062;6.920;2022-11-20T14:01:44;30.87;;;16.17;;
4122;SDS011;2075;51.062;6.920;2022-11-20T14:04:32;28.07;;;14.70;;
4122;SDS011;2075;51.062;6.920;2022-11-20T14:07:22;24.93;;;13.30;;
4122;SDS011;2075;51.062;6.920;2022-11-20T14:10:18;33.77;;;13.90;;
4122;SDS011;2075;51.062;6.920;2022-11-20T14:13:15;26.00;;;13.83;;
4122;SDS011;2075;51.062;6.920;2022-11-20T14:16:03;33.00;;;14.80;;
4122;SDS011;2075;51.062;6.920;2022-11-20T14:18:48;28.73;;;15.77;;
4122;SDS011;2075;51.062;6.920;2022-11-20T14:21:33;27.17;;;13.70;;
4122;SDS011;2075;51.062;6.920;2022-11-20T14:24:21;27.93;;;15.13;;
4122;SDS011;2075;51.062;6.920;2022-11-20T14:27:12;22.00;;;12.67;;
4122;SDS011;2075;51.062;6.920;2022-11-20T14:30:00;25.97;;;14.07;;
4122;SDS011;2075;51.062;6.920;2022-11-20T14:32:46;27.43;;;13.97;;
4122;SDS011;2075;51.062;6.920;2022-11-20T14:35:34;26.30;;;13.43;;
4122;SDS011;2075;51.062;6.920;2022-11-20T14:38:26;30.53;;;14.00;;
4122;SDS011;2075;51.062;6.920;2022-11-20T14:41:20;27.60;;;14.10;;
4122;SDS011;2075;51.062;6.920;2022-11-20T14:44:08;27.17;;;13.33;;
4122;SDS011;2075;51.062;6.920;2022-11-20T14:46:59;26.77;;;14.10;;
4122;SDS011;2075;51.062;6.920;2022-11-20T14:49:46;30.23;;;14.00;;
4122;SDS011;2075;51.062;6.920;2022-11-20T14:52:33;34.03;;;15.50;;
4122;SDS011;2075;51.062;6.920;2022-11-20T14:55:25;31.33;;;14.97;;
4122;SDS011;2075;51.062;6.920;2022-11-20T14:58:21;26.43;;;12.60;;
4122;SDS011;2075;51.062;6.920;2022-11-20T15:01:11;27.70;;;14.10;;
4122;SDS011;2075;51.062;6.920;2022-11-20T15:04:01;25.43;;;13.80;;
4122;SDS011;2075;51.062;6.920;2022-11-20T15:06:53;26.30;;;13.77;;
4122;SDS011;2075;51.062;6.920;2022-11-20T15:09:40;26.43;;;14.07;;
4122;SDS011;2075;51.062;6.920;2022-11-20T15:12:25;27.47;;;14.17;;
4122;SDS011;2075;51.062;6.920;2022-11-20T15:15:12;27.20;;;14.47;;
4122;SDS011;2075;51.062;6.920;2022-11-20T15:18:02;26.50;;;13.77;;
4122;SDS011;2075;51.062;6.920;2022-11-20T15:20:49;28.47;;;14.57;;
4122;SDS011;2075;51.062;6.920;2022-11-20T15:23:35;23.70;;;13.80;;
4122;SDS011;2075;51.062;6.920;2022-11-20T15:26:22;28.53;;;14.70;;
4122;SDS011;2075;51.062;6.920;2022-11-20T15:29:09;32.03;;;13.03;;
4122;SDS011;2075;51.062;6.920;2022-11-20T15:31:58;24.50;;;12.97;;
4122;SDS011;2075;51.062;6.920;2022-11-20T15:34:43;29.30;;;13.80;;
4122;SDS011;2075;51.062;6.920;2022-11-20T15:37:29;37.50;;;14.30;;
4122;SDS011;2075;51.062;6.920;2022-11-20T15:40:15;23.77;;;12.60;;
4122;SDS011;2075;51.062;6.920;2022-11-20T15:43:01;28.13;;;14.60;;
4122;SDS011;2075;51.062;6.920;2022-11-20T15:45:51;31.90;;;15.50;;
4122;SDS011;2075;51.062;6.920;2022-11-20T15:48:42;33.43;;;15.43;;
4122;SDS011;2075;51.062;6.920;2022-11-20T15:51:29;29.60;;;14.70;;
4122;SDS011;2075;51.062;6.920;2022-11-20T15:54:17;27.83;;;14.87;;
4122;SDS011;2075;51.062;6.920;2022-11-20T15:57:04;27.53;;;14.93;;
4122;SDS011;2075;51.062;6.920;2022-11-20T15:59:50;28.93;;;15.30;;
4122;SDS011;2075;51.062;6.920;2022-11-20T16:02:35;30.40;;;15.27;;
4122;SDS011;2075;51.062;6.920;2022-11-20T16:05:23;28.40;;;14.83;;
4122;SDS011;2075;51.062;6.920;2022-11-20T16:08:15;32.50;;;14.60;;
4122;SDS011;2075;51.062;6.920;2022-11-20T16:11:45;31.07;;;16.03;;
4122;SDS011;2075;51.062;6.920;2022-11-20T16:14:39;33.43;;;15.17;;
4122;SDS011;2075;51.062;6.920;2022-11-20T16:17:42;30.00;;;14.00;;
4122;SDS011;2075;51.062;6.920;2022-11-20T16:20:29;31.60;;;14.53;;
4122;SDS011;2075;51.062;6.920;2022-11-20T16:23:14;27.93;;;15.23;;
4122;SDS011;2075;51.062;6.920;2022-11-20T16:26:08;30.10;;;15.93;;
4122;SDS011;2075;51.062;6.920;2022-11-20T16:28:55;29.40;;;14.80;;
4122;SDS011;2075;51.062;6.920;2022-11-20T16:31:40;28.13;;;14.50;;
4122;SDS011;2075;51.062;6.920;2022-11-20T16:34:25;26.57;;;14.10;;
4122;SDS011;2075;51.062;6.920;2022-11-20T16:37:12;24.30;;;12.90;;
4122;SDS011;2075;51.062;6.920;2022-11-20T16:39:58;23.63;;;12.83;;
4122;SDS011;2075;51.062;6.920;2022-11-20T16:42:43;22.73;;;11.90;;
4122;SDS011;2075;51.062;6.920;2022-11-20T16:45:28;25.70;;;12.37;;
4122;SDS011;2075;51.062;6.920;2022-11-20T16:48:14;22.30;;;12.17;;
4122;SDS011;2075;51.062;6.920;2022-11-20T16:51:00;21.53;;;10.97;;
4122;SDS011;2075;51.062;6.920;2022-11-20T16:53:47;23.10;;;11.53;;
4122;SDS011;2075;51.062;6.920;2022-11-20T16:56:34;28.27;;;12.50;;
4122;SDS011;2075;51.062;6.920;2022-11-20T16:59:20;24.43;;;11.60;;
4122;SDS011;2075;51.062;6.920;2022-11-20T17:02:05;29.47;;;11.87;;
4122;SDS011;2075;51.062;6.920;2022-11-20T17:04:51;22.03;;;11.80;;